Decoded Metar for PAGH ( in ) (IATA:) | Meteo·Mobile Aviation Weather
aviador You're here:

PAGH Decoded Metar

in
Report Time2018-11-19 01:56:00
UTC Time2018-11-19 02:37:54
Flight Rules vfr VFR
Wind100° at 16 kt
W.Decomp.*RWY 09: 15.8 kt HW 2.8 kt RCW
W.Rank100° ranks 2
Current wind is above 100° avg. (11.8)
Visibility9999 m
Phenomena:N/A
Clouds:Overcast 042 Hf
Expected CloudBase > 2,800 ft AGL from Temp-Dew spread
Ceiling4,200 ft
Temp-3°C
Dew Point-10°C (59% RH)
AAT-11.8°C
QNH1001 hPa
Raw Report
PAGH 190156Z AUTO 10016KT 10SM OVC042 M03/M10 A2957 RMK AO2 SLP019
T10281100 FZRANO=

Extra information for PAGH:More info

Social comments